Time;durP1;ratioP1;P1;durP2;ratioP2;P2;SDS_P1;SDS_P2;PMS_P1;PMS_P2;Temp;Humidity;BMP_temperature;BMP_pressure;BME280_temperature;BME280_humidity;BME280_pressure;Samples;Min_cycle;Max_cycle;Signal;HPM_P1;HPM_P2
2023/07/27 00:01:32;;;;;;;4.88;3.78;;;;;;;18.48;100.00;100908.25;5255252;28;20984;-69
2023/07/27 00:04:03;;;;;;;6.68;3.80;;;;;;;18.45;100.00;100911.28;5256221;28;20048;-69
2023/07/27 00:06:35;;;;;;;4.97;3.93;;;;;;;18.38;100.00;100906.88;5256896;28;20094;-69
2023/07/27 00:09:06;;;;;;;6.32;4.53;;;;;;;18.35;100.00;100901.94;5255356;28;20098;-69
2023/07/27 00:11:37;;;;;;;5.63;3.88;;;;;;;18.33;100.00;100901.28;5256057;28;20020;-69
2023/07/27 00:14:08;;;;;;;6.15;4.47;;;;;;;18.33;100.00;100907.41;5254918;28;20028;-69
2023/07/27 00:16:40;;;;;;;8.05;4.38;;;;;;;18.32;100.00;100895.16;5255704;28;20036;-69
2023/07/27 00:19:11;;;;;;;5.65;3.80;;;;;;;18.30;100.00;100893.69;5255118;28;20036;-68
2023/07/27 00:21:42;;;;;;;6.35;3.95;;;;;;;18.29;100.00;100892.03;5255639;28;20017;-68
2023/07/27 00:24:13;;;;;;;7.25;3.95;;;;;;;18.32;100.00;100891.69;5256586;28;20322;-69
2023/07/27 00:26:45;;;;;;;8.40;3.88;;;;;;;18.28;100.00;100888.56;5253368;28;20028;-69
2023/07/27 00:29:16;;;;;;;5.15;4.00;;;;;;;18.24;100.00;100888.09;5255641;28;20040;-68
2023/07/27 00:31:47;;;;;;;8.55;4.15;;;;;;;18.20;100.00;100878.84;5254575;28;20100;-69
2023/07/27 00:34:19;;;;;;;5.13;3.60;;;;;;;18.18;100.00;100885.31;5254374;28;20025;-69
2023/07/27 00:36:50;;;;;;;4.22;3.28;;;;;;;18.17;100.00;100886.34;5255850;28;20036;-69
2023/07/27 00:39:21;;;;;;;5.28;3.88;;;;;;;18.10;100.00;100890.69;5253918;28;20382;-69
2023/07/27 00:41:53;;;;;;;6.32;4.18;;;;;;;18.04;100.00;100875.53;5252739;28;20033;-70
2023/07/27 00:44:24;;;;;;;5.60;3.80;;;;;;;18.05;100.00;100872.69;5254958;28;20106;-68
2023/07/27 00:46:55;;;;;;;5.43;4.07;;;;;;;18.03;100.00;100868.53;5255310;28;20028;-71
2023/07/27 00:49:27;;;;;;;5.95;4.20;;;;;;;18.03;100.00;100868.53;5255880;28;20029;-68
2023/07/27 00:52:05;;;;;;;5.50;3.47;;;;;;;17.99;100.00;100860.97;5254835;28;20120;-68
2023/07/27 00:54:37;;;;;;;6.68;3.72;;;;;;;17.94;100.00;100858.00;5254463;28;20070;-68
2023/07/27 00:57:08;;;;;;;5.82;3.97;;;;;;;17.91;100.00;100852.25;5254696;28;20409;-69
2023/07/27 00:59:40;;;;;;;5.35;3.90;;;;;;;17.75;100.00;100824.88;5269409;22;20432;-73
2023/07/27 01:02:12;;;;;;;5.20;4.40;;;;;;;17.83;100.00;100847.00;5241826;28;20083;-72
2023/07/27 01:04:43;;;;;;;7.77;4.80;;;;;;;17.77;100.00;100832.66;5239469;28;20031;-73
2023/07/27 01:07:15;;;;;;;5.43;4.35;;;;;;;17.81;100.00;100827.81;5242134;28;20025;-73
2023/07/27 01:09:47;;;;;;;6.35;4.20;;;;;;;17.74;100.00;100823.19;5242206;28;20041;-73
2023/07/27 01:12:32;;;;;;;6.45;4.18;;;;;;;17.97;100.00;100825.03;5247106;28;20039;-73
2023/07/27 01:15:06;;;;;;;5.85;4.07;;;;;;;17.65;100.00;100818.13;5243201;28;20367;-73
2023/07/27 01:17:52;;;;;;;7.22;4.28;;;;;;;17.83;100.00;100813.38;5240295;28;20025;-73
2023/07/27 01:20:38;;;;;;;7.18;5.03;;;;;;;17.78;100.00;100810.44;5232228;28;20090;-73
2023/07/27 01:23:32;;;;;;;8.30;4.85;;;;;;;17.68;100.00;100799.22;5237994;28;20067;-73
2023/07/27 01:26:09;;;;;;;8.52;5.30;;;;;;;17.67;100.00;100811.66;5241706;28;20511;-73
2023/07/27 01:28:59;;;;;;;9.77;5.18;;;;;;;17.49;100.00;100808.47;5242234;28;20367;-73
2023/07/27 01:31:34;;;;;;;6.57;5.00;;;;;;;17.57;100.00;100803.09;5239629;28;20494;-73
2023/07/27 01:34:12;;;;;;;7.13;4.72;;;;;;;17.55;100.00;100799.84;5242220;28;20036;-73
2023/07/27 01:36:48;;;;;;;6.75;5.10;;;;;;;17.60;100.00;100789.50;5235751;28;20025;-73
2023/07/27 01:39:22;;;;;;;10.10;5.35;;;;;;;17.47;100.00;100790.13;5239189;28;20111;-73
2023/07/27 01:41:55;;;;;;;7.97;5.40;;;;;;;17.39;100.00;100781.41;5240286;28;20086;-73
2023/07/27 01:44:29;;;;;;;6.50;5.28;;;;;;;17.42;100.00;100781.03;5244329;28;20472;-73
2023/07/27 01:47:02;;;;;;;8.30;6.07;;;;;;;17.37;100.00;100770.16;5242805;28;20457;-73
2023/07/27 01:49:34;;;;;;;;;;;;;;;18.16;100.00;100784.75;5245876;28;20503;-73
2023/07/27 01:52:07;;;;;;;8.70;5.67;;;;;;;17.44;100.00;100773.75;5238465;28;20019;-73
2023/07/27 01:54:39;;;;;;;7.03;5.50;;;;;;;17.36;100.00;100774.63;5246728;28;20029;-73
2023/07/27 01:57:11;;;;;;;7.07;5.88;;;;;;;17.36;100.00;100765.88;5235167;28;20490;-73
2023/07/27 01:59:44;;;;;;;7.37;5.63;;;;;;;17.40;100.00;100764.50;5243508;28;20123;-73
2023/07/27 02:02:15;;;;;;;;;;;;;;;18.07;100.00;100754.03;5241051;28;20287;-73
2023/07/27 02:04:48;;;;;;;6.00;5.00;;;;;;;17.36;100.00;100747.34;5241161;28;19939;-73
2023/07/27 02:07:19;;;;;;;6.10;5.50;;;;;;;17.32;100.00;100735.44;5238632;28;20017;-73
2023/07/27 02:09:51;;;;;;;7.55;5.95;;;;;;;17.27;100.00;100741.25;5240937;28;20031;-73
2023/07/27 02:12:30;;;;;;;8.55;5.72;;;;;;;17.34;100.00;100736.91;5243528;28;20095;-73
2023/07/27 02:15:07;;;;;;;7.85;6.07;;;;;;;17.21;100.00;100716.31;5250154;28;20021;-73
2023/07/27 02:17:45;;;;;;;6.82;5.75;;;;;;;17.16;100.00;100715.19;5236723;28;20064;-73
2023/07/27 02:20:16;;;;;;;6.20;5.18;;;;;;;17.18;100.00;100710.56;5229350;28;20104;-73
2023/07/27 02:22:49;;;;;;;7.30;5.90;;;;;;;17.09;100.00;100707.16;5241832;28;20559;-73
2023/07/27 02:25:21;;;;;;;;;;;;;;;17.89;100.00;100705.84;5235657;28;20043;-73
2023/07/27 02:27:52;;;;;;;8.35;6.03;;;;;;;17.27;100.00;100702.38;5238274;28;20007;-73
2023/07/27 02:30:23;;;;;;;8.07;5.93;;;;;;;17.27;100.00;100690.94;5235743;28;20075;-73
2023/07/27 02:32:54;;;;;;;7.70;5.93;;;;;;;17.17;100.00;100688.56;5243869;28;20304;-73
2023/07/27 02:35:26;;;;;;;7.78;5.43;;;;;;;17.23;100.00;100692.31;5234741;28;20021;-73
2023/07/27 02:37:57;;;;;;;9.15;6.22;;;;;;;17.11;100.00;100680.50;5235778;28;20025;-73
2023/07/27 02:40:28;;;;;;;6.68;5.55;;;;;;;17.13;100.00;100673.22;5241834;28;20071;-73
2023/07/27 02:42:59;;;;;;;7.65;5.85;;;;;;;17.07;100.00;100669.44;5242778;28;20041;-73
2023/07/27 02:45:34;;;;;;;10.00;6.60;;;;;;;17.15;100.00;100661.41;5240717;28;20036;-73
2023/07/27 02:48:05;;;;;;;7.53;5.82;;;;;;;17.06;100.00;100653.72;5242351;28;20388;-72
2023/07/27 02:50:36;;;;;;;6.95;5.13;;;;;;;17.08;100.00;100652.53;5235455;28;20040;-73
2023/07/27 02:53:07;;;;;;;9.15;5.65;;;;;;;17.04;100.00;100653.91;5240564;28;20485;-72
2023/07/27 02:55:39;;;;;;;7.68;6.05;;;;;;;16.99;100.00;100654.44;5237754;28;20382;-72
2023/07/27 02:58:10;;;;;;;6.88;5.55;;;;;;;17.00;100.00;100650.78;5239461;28;20474;-72
2023/07/27 03:00:41;;;;;;;9.38;6.30;;;;;;;17.02;100.00;100650.63;5235555;28;20505;-72
2023/07/27 03:03:13;;;;;;;7.95;5.93;;;;;;;17.02;100.00;100645.31;5238003;28;20123;-72
2023/07/27 03:05:45;;;;;;;6.60;5.18;;;;;;;17.00;100.00;100644.66;5239966;28;20108;-72
2023/07/27 03:08:16;;;;;;;7.35;5.68;;;;;;;16.94;100.00;100646.22;5244071;28;20504;-73
2023/07/27 03:10:47;;;;;;;8.07;6.07;;;;;;;16.92;100.00;100632.31;5245210;28;20041;-73
2023/07/27 03:13:18;;;;;;;7.45;5.88;;;;;;;16.82;100.00;100615.03;5247171;28;20667;-73
2023/07/27 03:15:50;;;;;;;7.00;5.53;;;;;;;16.88;100.00;100624.91;5237770;28;20375;-73
2023/07/27 03:18:21;;;;;;;8.23;5.85;;;;;;;16.89;100.00;100622.06;5247333;28;20017;-73
2023/07/27 03:20:53;;;;;;;6.53;5.10;;;;;;;16.70;100.00;100607.47;5242698;28;20728;-73
2023/07/27 03:23:24;;;;;;;8.40;5.78;;;;;;;16.78;100.00;100607.47;5245844;28;20401;-73
2023/07/27 03:25:55;;;;;;;7.88;5.45;;;;;;;16.85;100.00;100598.81;5243507;28;20457;-73
2023/07/27 03:28:26;;;;;;;8.15;5.70;;;;;;;16.84;100.00;100597.16;5242607;28;20017;-73
2023/07/27 03:30:58;;;;;;;7.13;5.45;;;;;;;16.79;100.00;100584.47;5240698;28;20580;-73
2023/07/27 03:33:29;;;;;;;6.43;5.40;;;;;;;16.75;100.00;100568.13;5247624;28;20082;-73
2023/07/27 03:36:00;;;;;;;6.43;5.38;;;;;;;16.78;100.00;100567.78;5241565;28;20037;-73
2023/07/27 03:38:32;;;;;;;6.47;5.40;;;;;;;16.74;100.00;100561.19;5244427;28;20035;-73
2023/07/27 03:41:03;;;;;;;8.73;5.95;;;;;;;16.76;100.00;100545.13;5244940;28;20029;-73
2023/07/27 03:43:35;;;;;;;9.40;5.82;;;;;;;16.71;100.00;100542.19;5244323;28;20021;-73
2023/07/27 03:46:06;;;;;;;8.02;5.47;;;;;;;16.70;100.00;100536.03;5244916;28;20094;-73
2023/07/27 03:48:37;;;;;;;8.88;5.93;;;;;;;16.74;100.00;100533.91;5239945;28;20044;-72
2023/07/27 03:51:09;;;;;;;8.50;5.22;;;;;;;16.70;100.00;100516.72;5243440;28;20470;-72
2023/07/27 03:53:40;;;;;;;8.32;5.55;;;;;;;16.73;100.00;100521.66;5247501;28;20112;-72
2023/07/27 03:56:11;;;;;;;5.90;4.70;;;;;;;16.71;100.00;100527.13;5242929;28;20037;-73
2023/07/27 03:58:42;;;;;;;7.63;5.30;;;;;;;16.72;100.00;100523.47;5246449;28;20504;-73
2023/07/27 04:01:14;;;;;;;7.40;4.43;;;;;;;16.68;100.00;100524.00;5237828;28;20894;-73
2023/07/27 04:03:45;;;;;;;7.30;4.63;;;;;;;16.69;100.00;100507.13;5245137;28;20063;-73
2023/07/27 04:06:16;;;;;;;5.53;4.47;;;;;;;16.68;100.00;100508.97;5248298;28;20678;-72
2023/07/27 04:08:48;;;;;;;4.72;4.05;;;;;;;16.66;100.00;100526.81;5247039;28;20505;-72
2023/07/27 04:11:19;;;;;;;5.60;4.63;;;;;;;16.70;100.00;100527.28;5236681;28;20429;-73
2023/07/27 04:13:50;;;;;;;5.43;4.07;;;;;;;16.67;100.00;100514.44;5245183;28;20037;-73
2023/07/27 04:16:21;;;;;;;5.43;4.35;;;;;;;16.68;100.00;100508.97;5240204;28;20025;-73
2023/07/27 04:18:53;;;;;;;5.55;3.80;;;;;;;16.64;100.00;100505.03;5235030;28;20062;-73
2023/07/27 04:21:24;;;;;;;4.95;3.78;;;;;;;16.69;100.00;100502.66;5243590;28;20033;-73
2023/07/27 04:23:55;;;;;;;3.85;3.10;;;;;;;16.70;100.00;100500.84;5241867;28;20036;-73
2023/07/27 04:26:27;;;;;;;4.53;3.20;;;;;;;16.67;100.00;100496.75;5245573;28;20029;-73
2023/07/27 04:28:58;;;;;;;4.72;3.30;;;;;;;16.65;100.00;100485.50;5241776;28;20044;-73
2023/07/27 04:31:29;;;;;;;5.30;3.20;;;;;;;16.64;100.00;100480.41;5246167;28;20098;-73
2023/07/27 04:34:00;;;;;;;5.63;3.10;;;;;;;16.63;100.00;100476.94;5246275;28;20056;-73
2023/07/27 04:36:32;;;;;;;4.55;3.17;;;;;;;16.67;100.00;100486.16;5241552;28;20017;-73
2023/07/27 04:39:03;;;;;;;4.75;2.80;;;;;;;16.70;100.00;100480.50;5242008;28;20087;-73
2023/07/27 04:41:34;;;;;;;5.38;3.47;;;;;;;16.70;100.00;100480.50;5239580;28;20041;-73
2023/07/27 04:44:05;;;;;;;3.58;3.00;;;;;;;16.73;100.00;100471.38;5240759;28;20017;-73
2023/07/27 04:46:38;;;;;;;5.20;3.03;;;;;;;16.70;100.00;100467.25;5241538;28;20017;-73
2023/07/27 04:49:10;;;;;;;6.22;3.65;;;;;;;16.70;100.00;100463.81;5248480;28;20020;-73
2023/07/27 04:51:41;;;;;;;4.22;2.80;;;;;;;16.69;100.00;100468.28;5239290;28;20067;-72
2023/07/27 04:54:12;;;;;;;6.38;3.17;;;;;;;16.68;100.00;100460.53;5245539;28;20021;-73
2023/07/27 04:56:43;;;;;;;3.97;3.10;;;;;;;16.70;100.00;100461.16;5239119;28;20036;-73
2023/07/27 04:59:15;;;;;;;4.45;3.15;;;;;;;16.70;100.00;100461.97;5246285;28;20017;-73
2023/07/27 05:01:46;;;;;;;3.72;3.00;;;;;;;16.66;100.00;100451.94;5243748;28;20561;-73
2023/07/27 05:04:18;;;;;;;6.15;3.60;;;;;;;16.73;100.00;100456.38;5242680;28;20032;-73
2023/07/27 05:06:49;;;;;;;4.40;3.45;;;;;;;16.71;100.00;100450.41;5240748;28;20025;-73
2023/07/27 05:09:20;;;;;;;4.95;3.15;;;;;;;16.77;100.00;100448.88;5243451;28;20032;-73
2023/07/27 05:11:52;;;;;;;4.70;3.22;;;;;;;16.77;100.00;100447.06;5246228;28;20038;-73
2023/07/27 05:14:23;;;;;;;4.70;3.20;;;;;;;16.80;100.00;100434.50;5241211;28;20639;-73
2023/07/27 05:16:54;;;;;;;6.05;3.08;;;;;;;16.84;100.00;100433.13;5241799;28;20032;-73
2023/07/27 05:19:25;;;;;;;3.92;3.10;;;;;;;16.88;100.00;100419.34;5250794;28;20052;-73
2023/07/27 05:21:57;;;;;;;3.95;3.13;;;;;;;16.92;100.00;100425.91;5238101;28;20084;-72
2023/07/27 05:24:28;;;;;;;4.07;3.20;;;;;;;16.87;100.00;100420.34;5243964;28;20026;-73
2023/07/27 05:26:59;;;;;;;3.20;2.90;;;;;;;16.84;100.00;100415.41;5240972;28;20047;-73
2023/07/27 05:29:30;;;;;;;3.58;2.90;;;;;;;16.91;100.00;100420.81;5243022;28;20025;-74
2023/07/27 05:32:02;;;;;;;4.57;2.95;;;;;;;16.90;100.00;100411.25;5238273;28;20033;-73
2023/07/27 05:34:34;;;;;;;4.18;3.05;;;;;;;16.93;100.00;100410.84;5242595;28;20020;-73
2023/07/27 05:37:06;;;;;;;3.17;2.55;;;;;;;16.96;100.00;100415.78;5243584;28;20027;-73
2023/07/27 05:39:37;;;;;;;2.95;2.42;;;;;;;16.98;100.00;100411.16;5238530;28;20025;-73
2023/07/27 05:42:08;;;;;;;3.15;2.58;;;;;;;17.02;100.00;100412.44;5242741;28;20041;-73
2023/07/27 05:44:39;;;;;;;2.90;2.33;;;;;;;17.05;100.00;100409.41;5239696;28;20382;-73
2023/07/27 05:47:11;;;;;;;2.50;2.30;;;;;;;17.09;100.00;100404.59;5238996;28;20018;-73
2023/07/27 05:49:42;;;;;;;2.95;2.20;;;;;;;17.10;100.00;100395.63;5243670;28;20029;-73
2023/07/27 05:52:13;;;;;;;2.45;2.05;;;;;;;17.17;100.00;100397.34;5240640;28;20075;-73
2023/07/27 05:54:44;;;;;;;4.03;2.75;;;;;;;17.21;100.00;100398.63;5240561;28;20025;-73
2023/07/27 05:57:16;;;;;;;4.85;2.10;;;;;;;17.24;100.00;100392.16;5237724;28;20021;-73
2023/07/27 05:59:47;;;;;;;2.72;2.25;;;;;;;17.29;100.00;100396.88;5243799;28;20530;-73
2023/07/27 06:02:18;;;;;;;2.78;2.17;;;;;;;17.28;100.00;100388.13;5242517;28;20032;-73
2023/07/27 06:04:49;;;;;;;3.10;2.28;;;;;;;17.31;100.00;100392.22;5242952;28;20648;-73
2023/07/27 06:07:21;;;;;;;4.10;2.42;;;;;;;17.33;100.00;100387.56;5238797;28;20021;-74
2023/07/27 06:09:52;;;;;;;3.20;2.63;;;;;;;17.38;100.00;100390.47;5239419;28;20056;-73
2023/07/27 06:12:23;;;;;;;3.05;2.50;;;;;;;17.39;100.00;100392.13;5239176;28;20036;-73
2023/07/27 06:14:55;;;;;;;2.72;2.13;;;;;;;17.42;100.00;100383.78;5243274;28;20087;-74
2023/07/27 06:17:28;;;;;;;2.83;2.30;;;;;;;17.49;100.00;100390.81;5240398;28;20421;-73
2023/07/27 06:19:59;;;;;;;2.78;2.08;;;;;;;17.50;100.00;100381.03;5242509;28;20028;-73
2023/07/27 06:22:30;;;;;;;2.85;2.00;;;;;;;17.48;100.00;100367.16;5239179;28;20025;-74
2023/07/27 06:25:01;;;;;;;2.60;2.22;;;;;;;17.61;100.00;100372.59;5237253;28;20053;-74
2023/07/27 06:27:33;;;;;;;2.83;2.15;;;;;;;17.67;100.00;100376.34;5237230;28;20120;-72
2023/07/27 06:30:05;;;;;;;3.40;1.70;;;;;;;17.66;100.00;100366.75;5243840;28;20092;-71
2023/07/27 06:32:36;;;;;;;2.40;1.85;;;;;;;17.73;100.00;100375.59;5240019;28;20056;-71
2023/07/27 06:35:08;;;;;;;2.97;1.77;;;;;;;17.84;100.00;100374.28;5244200;28;20131;-72
2023/07/27 06:37:39;;;;;;;2.30;1.80;;;;;;;17.86;100.00;100367.00;5239259;28;20024;-72
2023/07/27 06:40:10;;;;;;;2.00;1.50;;;;;;;17.86;100.00;100365.16;5239185;28;20032;-71
2023/07/27 06:42:42;;;;;;;2.10;1.85;;;;;;;17.89;100.00;100366.63;5231622;28;20033;-72
2023/07/27 06:45:13;;;;;;;3.08;2.03;;;;;;;17.87;100.00;100365.97;5222602;28;20068;-72
2023/07/27 06:47:44;;;;;;;2.20;1.40;;;;;;;17.97;100.00;100371.78;5231358;28;20032;-73
2023/07/27 06:50:16;;;;;;;3.47;1.83;;;;;;;18.01;100.00;100366.91;5238644;28;20029;-72
2023/07/27 06:52:47;;;;;;;2.25;1.80;;;;;;;18.00;100.00;100363.47;5238945;28;20036;-72
2023/07/27 06:55:18;;;;;;;2.50;1.85;;;;;;;18.02;100.00;100366.72;5240723;28;20054;-72
2023/07/27 06:57:50;;;;;;;2.05;1.67;;;;;;;18.04;100.00;100364.72;5238236;28;20020;-73
2023/07/27 07:00:21;;;;;;;2.28;1.73;;;;;;;18.07;100.00;100371.44;5237021;28;20038;-73
2023/07/27 07:02:52;;;;;;;2.30;1.70;;;;;;;18.10;100.00;100361.28;5229420;28;20050;-73
2023/07/27 07:05:24;;;;;;;2.40;1.75;;;;;;;18.09;100.00;100364.94;5236516;28;20033;-73
2023/07/27 07:07:55;;;;;;;2.60;1.80;;;;;;;18.09;100.00;100367.59;5239005;28;20022;-73
2023/07/27 07:10:27;;;;;;;2.75;1.80;;;;;;;18.13;100.00;100365.38;5237754;28;20465;-72
2023/07/27 07:12:58;;;;;;;3.13;1.65;;;;;;;18.12;100.00;100364.56;5238676;28;20033;-72
2023/07/27 07:15:30;;;;;;;3.08;2.22;;;;;;;18.19;100.00;100373.41;5239463;28;20032;-73
2023/07/27 07:18:01;;;;;;;2.33;1.67;;;;;;;18.22;100.00;100359.78;5234045;28;20824;-72
2023/07/27 07:20:32;;;;;;;2.63;1.90;;;;;;;18.22;100.00;100367.72;5239904;28;20036;-72
2023/07/27 07:23:04;;;;;;;5.47;1.85;;;;;;;18.32;100.00;100377.16;5238136;28;20406;-72
2023/07/27 07:25:35;;;;;;;2.45;1.90;;;;;;;18.36;100.00;100373.13;5237603;28;20476;-73
2023/07/27 07:28:06;;;;;;;2.33;1.92;;;;;;;18.29;100.00;100364.28;5235914;28;20483;-73
2023/07/27 07:30:41;;;;;;;2.33;1.85;;;;;;;18.39;100.00;100372.75;5239031;28;20752;-73
2023/07/27 07:33:12;;;;;;;1.95;1.58;;;;;;;18.43;100.00;100372.16;5238844;28;20545;-72
2023/07/27 07:35:44;;;;;;;3.00;1.60;;;;;;;18.57;100.00;100359.00;5238193;28;20036;-72
2023/07/27 07:38:15;;;;;;;1.95;1.48;;;;;;;18.69;100.00;100355.59;5237603;28;20307;-73
2023/07/27 07:40:46;;;;;;;1.80;1.60;;;;;;;18.80;100.00;100356.09;5234259;28;20036;-73
2023/07/27 07:43:17;;;;;;;1.70;1.33;;;;;;;18.86;100.00;100357.97;5235961;28;20154;-73
2023/07/27 07:45:49;;;;;;;2.05;1.23;;;;;;;18.91;100.00;100342.28;5238309;28;20033;-73
2023/07/27 07:48:20;;;;;;;2.35;1.33;;;;;;;18.87;100.00;100349.00;5234149;28;20108;-73
2023/07/27 07:50:51;;;;;;;1.60;1.13;;;;;;;18.92;100.00;100354.53;5238220;28;20032;-72
2023/07/27 07:53:23;;;;;;;1.83;1.40;;;;;;;18.91;100.00;100347.59;5237488;28;20513;-73
2023/07/27 07:55:54;;;;;;;2.22;1.25;;;;;;;19.00;100.00;100343.75;5244401;28;20056;-73
2023/07/27 07:58:25;;;;;;;2.53;1.15;;;;;;;19.02;100.00;100349.69;5243228;28;20059;-72
2023/07/27 08:00:57;;;;;;;1.42;1.10;;;;;;;18.97;100.00;100354.75;5237523;28;20480;-73
2023/07/27 08:03:28;;;;;;;1.88;0.98;;;;;;;19.00;100.00;100350.91;5243484;28;20040;-73
2023/07/27 08:05:59;;;;;;;2.15;1.00;;;;;;;19.04;100.00;100347.63;5235943;28;20039;-73
2023/07/27 08:08:31;;;;;;;1.55;0.98;;;;;;;19.08;100.00;100350.72;5239604;28;20565;-72
2023/07/27 08:11:03;;;;;;;1.75;1.20;;;;;;;19.12;100.00;100346.66;5239339;28;20041;-72
2023/07/27 08:13:34;;;;;;;2.75;1.08;;;;;;;19.11;100.00;100339.72;5245258;28;20083;-73
2023/07/27 08:16:06;;;;;;;1.95;1.20;;;;;;;19.17;100.00;100345.06;5242138;28;20438;-73
2023/07/27 08:18:37;;;;;;;1.85;1.17;;;;;;;19.19;100.00;100344.84;5237997;28;20036;-73
2023/07/27 08:21:08;;;;;;;1.50;1.10;;;;;;;19.25;100.00;100343.25;5246787;28;20041;-73
2023/07/27 08:23:40;;;;;;;1.58;1.20;;;;;;;19.24;100.00;100337.09;5238746;28;20508;-73
2023/07/27 08:26:12;;;;;;;1.63;1.30;;;;;;;19.26;100.00;100336.91;5238430;28;20559;-73
2023/07/27 08:28:43;;;;;;;2.10;1.25;;;;;;;19.32;100.00;100342.25;5243144;28;20033;-73
2023/07/27 08:31:15;;;;;;;2.57;1.27;;;;;;;19.33;100.00;100332.44;5246454;28;20024;-73
2023/07/27 08:33:46;;;;;;;1.90;1.40;;;;;;;19.20;100.00;100322.56;5238600;28;20041;-73
2023/07/27 08:36:17;;;;;;;3.17;1.30;;;;;;;19.32;100.00;100334.28;5238124;28;20036;-73
2023/07/27 08:38:48;;;;;;;2.03;1.30;;;;;;;19.31;100.00;100329.97;5239908;28;20092;-73
2023/07/27 08:41:20;;;;;;;2.53;1.60;;;;;;;19.37;100.00;100325.72;5243469;28;20060;-73
2023/07/27 08:43:51;;;;;;;2.05;1.30;;;;;;;19.42;100.00;100333.88;5240111;28;20033;-73
2023/07/27 08:46:23;;;;;;;1.80;1.38;;;;;;;19.52;100.00;100339.63;5237736;28;20065;-73
2023/07/27 08:48:55;;;;;;;1.40;1.08;;;;;;;19.49;100.00;100328.59;5236027;28;20559;-73
2023/07/27 08:51:29;;;;;;;1.60;1.20;;;;;;;19.56;100.00;100332.91;5239158;28;20668;-73
2023/07/27 08:54:01;;;;;;;1.70;1.45;;;;;;;19.57;100.00;100337.19;5240345;28;20495;-73
2023/07/27 08:56:32;;;;;;;1.40;1.30;;;;;;;19.64;100.00;100339.91;5244552;28;20031;-73
2023/07/27 08:59:04;;;;;;;1.53;1.30;;;;;;;19.55;100.00;100341.91;5236050;28;20057;-73
2023/07/27 09:01:35;;;;;;;1.50;1.00;;;;;;;19.49;100.00;100336.56;5235862;28;20043;-73
2023/07/27 09:04:06;;;;;;;1.57;1.20;;;;;;;19.52;100.00;100342.28;5241885;28;20099;-73
2023/07/27 09:06:39;;;;;;;1.55;1.00;;;;;;;19.55;100.00;100338.44;5246918;28;20066;-73
2023/07/27 09:09:18;;;;;;;1.95;1.10;;;;;;;19.58;100.00;100333.50;5243820;28;20059;-73
2023/07/27 09:11:51;;;;;;;1.65;1.15;;;;;;;19.57;100.00;100336.38;5234671;28;20036;-73
2023/07/27 09:14:23;;;;;;;2.58;1.17;;;;;;;19.66;100.00;100335.19;5240111;28;20029;-73
2023/07/27 09:16:56;;;;;;;1.98;0.90;;;;;;;19.76;100.00;100329.47;5249209;28;20039;-72
2023/07/27 09:19:33;;;;;;;1.90;1.10;;;;;;;19.82;100.00;100334.81;5244567;28;20511;-72
2023/07/27 09:22:05;;;;;;;2.88;1.10;;;;;;;19.67;100.00;100335.00;5239437;28;20057;-72
2023/07/27 09:24:36;;;;;;;2.25;1.30;;;;;;;19.80;100.00;100330.72;5241796;28;20049;-72
2023/07/27 09:27:14;;;;;;;1.63;1.20;;;;;;;19.96;100.00;100335.63;5238413;28;20050;-72
2023/07/27 09:29:45;;;;;;;2.38;1.40;;;;;;;19.87;100.00;100324.38;5242206;28;20107;-72
2023/07/27 09:32:16;;;;;;;2.63;1.25;;;;;;;19.98;100.00;100330.13;5245325;28;20045;-72
2023/07/27 09:34:54;;;;;;;1.60;1.00;;;;;;;20.02;100.00;100329.50;5241168;28;20028;-72
2023/07/27 09:37:26;;;;;;;1.90;1.13;;;;;;;19.86;100.00;100319.28;5241063;28;20771;-72
2023/07/27 09:40:08;;;;;;;2.85;1.08;;;;;;;20.15;100.00;100331.34;5240911;28;20029;-72
2023/07/27 09:42:42;;;;;;;1.88;1.17;;;;;;;20.01;100.00;100329.72;5244000;28;20569;-72
2023/07/27 09:45:14;;;;;;;1.55;1.13;;;;;;;19.93;100.00;100325.41;5240283;28;20033;-72
2023/07/27 09:47:46;;;;;;;2.00;1.05;;;;;;;19.98;100.00;100325.63;5238365;28;20025;-72
2023/07/27 09:50:18;;;;;;;2.47;0.98;;;;;;;19.96;100.00;100324.19;5240538;28;20116;-72
2023/07/27 09:52:50;;;;;;;1.27;0.80;;;;;;;19.98;100.00;100328.28;5238964;28;20051;-72
2023/07/27 09:55:24;;;;;;;1.67;0.87;;;;;;;19.95;100.00;100323.38;5237724;28;20140;-72
2023/07/27 09:57:58;;;;;;;1.40;0.90;;;;;;;19.97;100.00;100323.19;5239726;28;20117;-72
2023/07/27 10:00:29;;;;;;;1.67;1.17;;;;;;;20.01;100.00;100333.19;5240151;28;20076;-72
2023/07/27 10:03:01;;;;;;;1.20;0.90;;;;;;;20.04;100.00;100326.63;5240854;28;20120;-72
2023/07/27 10:05:36;;;;;;;2.78;1.13;;;;;;;20.12;100.00;100323.78;5239433;28;20028;-72
2023/07/27 10:08:07;;;;;;;1.30;1.10;;;;;;;20.20;100.00;100333.41;5239435;28;20044;-72
2023/07/27 10:10:41;;;;;;;2.50;0.88;;;;;;;20.29;100.00;100335.63;5236526;28;20037;-72
2023/07/27 10:13:36;;;;;;;1.33;1.13;;;;;;;20.53;100.00;100328.88;5236798;28;20032;-72
2023/07/27 10:16:10;;;;;;;1.98;1.10;;;;;;;20.15;100.00;100334.84;5239604;28;20399;-72
2023/07/27 10:18:44;;;;;;;1.10;0.70;;;;;;;20.24;100.00;100329.31;5239493;28;20048;-72
2023/07/27 10:21:24;;;;;;;1.10;0.70;;;;;;;20.37;100.00;100338.06;5241872;28;20060;-72
2023/07/27 10:24:00;;;;;;;1.10;0.70;;;;;;;20.32;100.00;100327.22;5238776;28;20025;-72
2023/07/27 10:26:44;;;;;;;1.00;0.60;;;;;;;20.39;100.00;100341.34;5238718;28;20051;-72
2023/07/27 10:29:20;;;;;;;1.08;0.70;;;;;;;20.33;100.00;100330.72;5247546;28;20053;-72
2023/07/27 10:32:10;;;;;;;1.15;0.80;;;;;;;20.47;100.00;100337.66;5235920;28;20048;-74
2023/07/27 10:34:42;;;;;;;1.60;0.90;;;;;;;20.24;100.00;100338.09;5243250;28;20025;-73
2023/07/27 10:37:16;;;;;;;1.50;0.90;;;;;;;20.21;100.00;100332.38;5242190;28;20071;-74
2023/07/27 10:39:50;;;;;;;2.65;0.82;;;;;;;20.30;100.00;100333.78;5241535;28;20499;-74
2023/07/27 10:42:26;;;;;;;2.35;0.95;;;;;;;20.26;100.00;100327.22;5240520;28;20382;-73
2023/07/27 10:44:58;;;;;;;1.40;0.80;;;;;;;20.23;100.00;100339.13;5236665;28;20037;-74
2023/07/27 10:47:37;;;;;;;1.60;0.98;;;;;;;20.35;100.00;100334.81;5242903;28;20457;-74
2023/07/27 10:50:09;;;;;;;1.50;0.82;;;;;;;20.32;100.00;100331.75;5237785;28;20044;-73
2023/07/27 10:52:41;;;;;;;1.10;0.75;;;;;;;20.30;100.00;100337.25;5233386;28;20490;-73
2023/07/27 10:55:13;;;;;;;1.50;0.80;;;;;;;20.36;100.00;100339.09;5233971;28;20037;-73
2023/07/27 10:57:46;;;;;;;1.00;0.60;;;;;;;20.42;100.00;100329.50;5236244;28;20029;-73
2023/07/27 11:00:17;;;;;;;1.33;0.88;;;;;;;20.35;100.00;100334.00;5233821;28;20498;-74
2023/07/27 11:02:49;;;;;;;2.05;0.60;;;;;;;20.37;100.00;100334.59;5236506;28;20033;-74
2023/07/27 11:05:21;;;;;;;1.30;0.80;;;;;;;20.46;100.00;100336.03;5231557;28;20024;-74
2023/07/27 11:08:00;;;;;;;1.30;0.68;;;;;;;20.61;100.00;100338.50;5238705;28;20312;-74
2023/07/27 11:10:32;;;;;;;1.95;0.60;;;;;;;20.33;100.00;100336.03;5234523;28;20139;-73
2023/07/27 11:13:04;;;;;;;1.20;0.70;;;;;;;20.34;100.00;100332.34;5234505;28;20758;-74
2023/07/27 11:15:35;;;;;;;1.00;0.77;;;;;;;20.41;100.00;100325.97;5239652;28;20067;-74
2023/07/27 11:18:07;;;;;;;1.10;0.65;;;;;;;20.48;100.00;100328.63;5236109;28;20025;-73
2023/07/27 11:20:41;;;;;;;0.90;0.60;;;;;;;20.56;100.00;100331.09;5236765;28;20025;-74
2023/07/27 11:23:12;;;;;;;1.23;0.60;;;;;;;20.53;100.00;100326.22;5239085;28;20022;-74
2023/07/27 11:25:43;;;;;;;0.95;0.60;;;;;;;20.58;100.00;100297.13;5236661;28;20387;-73
2023/07/27 11:28:16;;;;;;;0.83;0.60;;;;;;;20.77;100.00;100327.38;5236476;28;20036;-74
2023/07/27 11:30:52;;;;;;;1.33;0.68;;;;;;;20.90;100.00;100315.84;5241534;28;20401;-74
2023/07/27 11:33:31;;;;;;;1.58;0.60;;;;;;;20.80;100.00;100318.16;5239532;28;20629;-73
2023/07/27 11:36:04;;;;;;;1.02;0.60;;;;;;;20.78;100.00;100325.53;5238006;28;20093;-74
2023/07/27 11:38:36;;;;;;;0.85;0.50;;;;;;;20.79;100.00;100317.31;5243027;28;20027;-73
2023/07/27 11:41:07;;;;;;;0.70;0.50;;;;;;;20.89;100.00;100320.38;5237969;28;20033;-73